createdAt,value
2018-08-06T00:00:36.650Z,0.87
2018-08-06T00:03:05.934Z,0.90
2018-08-06T00:05:35.146Z,0.80
2018-08-06T00:08:08.829Z,0.70
2018-08-06T00:10:38.148Z,0.80
2018-08-06T00:13:12.100Z,0.90
2018-08-06T00:15:40.842Z,0.93
2018-08-06T00:18:16.815Z,1.00
2018-08-06T00:20:46.267Z,1.10
2018-08-06T00:23:18.944Z,0.70
2018-08-06T00:25:47.748Z,0.80
2018-08-06T00:28:20.496Z,0.90
2018-08-06T00:30:49.508Z,0.60
2018-08-06T00:33:22.259Z,0.90
2018-08-06T00:35:51.803Z,0.77
2018-08-06T00:38:27.909Z,0.90
2018-08-06T00:40:56.854Z,0.70
2018-08-06T00:43:27.121Z,0.83
2018-08-06T00:45:57.559Z,0.90
2018-08-06T00:48:30.274Z,1.20
2018-08-06T00:50:59.057Z,0.70
2018-08-06T00:53:35.189Z,0.70
2018-08-06T00:56:04.262Z,2.30
2018-08-06T00:58:33.940Z,0.77
2018-08-06T01:01:02.729Z,0.70
2018-08-06T01:03:39.352Z,0.87
2018-08-06T01:06:08.241Z,0.77
2018-08-06T01:08:39.232Z,0.83
2018-08-06T01:11:08.165Z,1.10
2018-08-06T01:13:44.724Z,0.80
2018-08-06T01:16:13.574Z,0.93
2018-08-06T01:18:44.661Z,0.93
2018-08-06T01:21:14.374Z,0.83
2018-08-06T01:23:47.023Z,0.73
2018-08-06T01:26:16.290Z,0.80
2018-08-06T01:28:48.991Z,0.80
2018-08-06T01:31:17.932Z,1.17
2018-08-06T01:33:53.277Z,0.80
2018-08-06T01:36:24.326Z,0.80
2018-08-06T01:38:54.590Z,0.90
2018-08-06T01:41:24.054Z,0.93
2018-08-06T01:44:02.425Z,0.90
2018-08-06T01:46:31.692Z,0.87
2018-08-06T01:49:00.645Z,0.80
2018-08-06T01:51:29.709Z,0.60
2018-08-06T01:54:03.814Z,0.90
2018-08-06T01:56:32.821Z,0.70
2018-08-06T01:59:06.853Z,0.70
2018-08-06T02:01:35.590Z,0.87
2018-08-06T02:04:10.354Z,0.87
2018-08-06T02:06:39.140Z,1.07
2018-08-06T02:09:15.871Z,0.70
2018-08-06T02:11:44.665Z,1.00
2018-08-06T02:14:16.645Z,0.63
2018-08-06T02:16:45.435Z,0.60
2018-08-06T02:19:18.281Z,0.80
2018-08-06T02:21:47.113Z,0.80
2018-08-06T02:24:23.529Z,1.30
2018-08-06T02:26:53.314Z,0.80
2018-08-06T02:29:23.408Z,0.67
2018-08-06T02:31:52.313Z,0.80
2018-08-06T02:34:25.097Z,0.70
2018-08-06T02:36:54.193Z,0.80
2018-08-06T02:39:30.394Z,0.73
2018-08-06T02:41:59.327Z,0.70
2018-08-06T02:44:29.619Z,0.83
2018-08-06T02:46:58.522Z,0.60
2018-08-06T02:49:31.556Z,0.90
2018-08-06T02:52:00.792Z,0.60
2018-08-06T02:54:36.624Z,0.90
2018-08-06T02:57:06.369Z,0.70
2018-08-06T02:59:36.820Z,0.70
2018-08-06T03:02:05.808Z,0.80
2018-08-06T03:04:42.126Z,0.70
2018-08-06T03:07:10.987Z,0.63
2018-08-06T03:09:41.698Z,0.70
2018-08-06T03:12:10.549Z,0.77
2018-08-06T03:14:46.431Z,0.70
2018-08-06T03:17:15.412Z,0.80
2018-08-06T03:19:48.016Z,0.70
2018-08-06T03:22:18.634Z,0.70
2018-08-06T03:24:51.287Z,0.70
2018-08-06T03:27:20.015Z,0.60
2018-08-06T03:29:53.686Z,0.70
2018-08-06T03:32:24.757Z,0.97
2018-08-06T03:34:57.156Z,1.00
2018-08-06T03:37:26.122Z,0.83
2018-08-06T03:40:02.818Z,1.10
2018-08-06T03:42:31.557Z,1.10
2018-08-06T03:45:02.351Z,1.00
2018-08-06T03:47:31.546Z,0.90
2018-08-06T03:50:09.529Z,0.80
2018-08-06T03:52:39.472Z,0.90
2018-08-06T03:55:09.303Z,1.57
2018-08-06T03:57:38.475Z,1.27
2018-08-06T04:00:14.012Z,1.33
2018-08-06T04:02:43.396Z,1.40
2018-08-06T04:05:13.872Z,0.90
2018-08-06T04:07:43.104Z,0.80
2018-08-06T04:10:19.223Z,1.00
2018-08-06T04:12:48.011Z,1.00
2018-08-06T04:15:19.977Z,0.80
2018-08-06T04:17:49.307Z,1.03
2018-08-06T04:20:22.458Z,0.93
2018-08-06T04:22:52.028Z,0.83
2018-08-06T04:25:22.216Z,1.40
2018-08-06T04:27:52.531Z,1.20
2018-08-06T04:30:25.332Z,1.00
2018-08-06T04:32:55.227Z,1.17
2018-08-06T04:35:32.245Z,1.10
2018-08-06T04:38:01.870Z,0.80
2018-08-06T04:40:32.653Z,1.10
2018-08-06T04:43:01.897Z,0.90
2018-08-06T04:45:33.356Z,1.00
2018-08-06T04:48:02.117Z,1.07
2018-08-06T04:50:38.320Z,1.00
2018-08-06T04:53:07.076Z,1.20
2018-08-06T04:55:37.563Z,1.00
2018-08-06T04:58:07.664Z,1.20
2018-08-06T05:00:41.353Z,1.00
2018-08-06T05:03:11.169Z,1.00
2018-08-06T05:05:43.544Z,1.23
2018-08-06T05:08:12.429Z,1.77
2018-08-06T05:10:45.893Z,2.00
2018-08-06T05:13:14.848Z,1.57
2018-08-06T05:15:47.980Z,1.67
2018-08-06T05:18:18.171Z,1.70
2018-08-06T05:20:54.121Z,1.57
2018-08-06T05:23:32.497Z,1.20
2018-08-06T05:26:01.319Z,1.40
2018-08-06T05:28:30.071Z,1.37
2018-08-06T05:30:59.237Z,1.43
2018-08-06T05:33:28.259Z,1.60
2018-08-06T05:36:01.055Z,1.63
2018-08-06T05:38:30.103Z,1.63
2018-08-06T05:41:02.860Z,1.87
2018-08-06T05:43:31.645Z,2.17
2018-08-06T05:46:08.967Z,2.70
2018-08-06T05:48:38.169Z,2.10
2018-08-06T05:51:09.330Z,2.30
2018-08-06T05:53:38.115Z,1.73
2018-08-06T05:56:14.633Z,1.97
2018-08-06T05:58:44.086Z,2.00
2018-08-06T06:01:14.841Z,1.87
2018-08-06T06:03:43.591Z,1.93
2018-08-06T06:06:19.818Z,1.80
2018-08-06T06:08:49.061Z,1.10
2018-08-06T06:11:19.063Z,1.63
2018-08-06T06:13:48.267Z,1.73
2018-08-06T06:16:25.245Z,1.40
2018-08-06T06:18:54.176Z,1.40
2018-08-06T06:21:24.187Z,1.30
2018-08-06T06:23:53.239Z,1.90
2018-08-06T06:26:26.306Z,1.23
2018-08-06T06:28:55.189Z,1.50
2018-08-06T06:31:28.168Z,1.40
2018-08-06T06:33:57.007Z,1.40
2018-08-06T06:36:33.440Z,1.20
2018-08-06T06:39:02.501Z,1.60
2018-08-06T06:41:33.159Z,1.40
2018-08-06T06:44:04.090Z,1.40
2018-08-06T06:46:35.707Z,1.60
2018-08-06T06:49:06.188Z,1.40
2018-08-06T06:51:39.156Z,1.30
2018-08-06T06:54:08.040Z,2.50
2018-08-06T06:56:44.702Z,1.30
2018-08-06T06:59:14.202Z,1.53
2018-08-06T07:01:43.248Z,1.30
2018-08-06T07:04:12.098Z,1.10
2018-08-06T07:06:48.799Z,1.20
2018-08-06T07:09:17.644Z,1.40
2018-08-06T07:11:49.656Z,1.30
2018-08-06T07:14:19.327Z,1.50
2018-08-06T07:16:51.431Z,1.40
2018-08-06T07:19:20.289Z,1.30
2018-08-06T07:21:56.948Z,1.97
2018-08-06T07:24:25.800Z,2.00
2018-08-06T07:26:58.174Z,3.07
2018-08-06T07:29:27.174Z,1.30
2018-08-06T07:32:04.208Z,3.43
2018-08-06T07:34:33.178Z,1.73
2018-08-06T07:37:06.316Z,1.73
2018-08-06T07:39:35.412Z,2.00
2018-08-06T07:42:08.173Z,2.13
2018-08-06T07:44:37.398Z,1.40
2018-08-06T07:47:09.386Z,1.97
2018-08-06T07:49:39.870Z,1.10
2018-08-06T07:52:16.360Z,1.40
2018-08-06T07:54:45.478Z,1.20
2018-08-06T07:57:17.793Z,1.37
2018-08-06T07:59:49.362Z,1.40
2018-08-06T08:02:20.184Z,1.23
2018-08-06T08:04:50.599Z,1.83
2018-08-06T08:07:22.158Z,1.27
2018-08-06T08:09:51.748Z,1.80
2018-08-06T08:12:23.023Z,1.80
2018-08-06T08:14:52.273Z,5.10
2018-08-06T08:17:28.249Z,1.87
2018-08-06T08:19:57.455Z,1.50
2018-08-06T08:22:33.273Z,1.40
2018-08-06T08:25:02.184Z,3.27
2018-08-06T08:27:31.678Z,2.60
2018-08-06T08:30:01.141Z,1.70
2018-08-06T08:32:33.241Z,1.50
2018-08-06T08:35:02.480Z,1.50
2018-08-06T08:37:36.673Z,1.67
2018-08-06T08:40:15.476Z,1.17
2018-08-06T08:42:46.426Z,1.60
2018-08-06T08:45:18.133Z,1.53
2018-08-06T08:47:47.249Z,1.37
2018-08-06T08:50:18.019Z,1.80
2018-08-06T08:52:47.289Z,2.07
2018-08-06T08:55:17.792Z,1.30
2018-08-06T08:57:48.168Z,1.30
2018-08-06T09:00:21.539Z,2.13
2018-08-06T09:02:52.368Z,1.50
2018-08-06T09:05:24.244Z,1.50
2018-08-06T09:07:53.381Z,1.93
2018-08-06T09:10:22.234Z,2.33
2018-08-06T09:12:55.405Z,3.00
2018-08-06T09:15:26.542Z,1.93
2018-08-06T09:17:56.719Z,1.90
2018-08-06T09:20:26.605Z,2.20
2018-08-06T09:22:58.738Z,2.00
2018-08-06T09:25:27.608Z,1.80
2018-08-06T09:28:06.084Z,1.93
2018-08-06T09:30:34.974Z,1.60
2018-08-06T09:33:06.418Z,2.00
2018-08-06T09:35:37.091Z,1.50
2018-08-06T09:38:09.202Z,2.27
2018-08-06T09:40:38.658Z,2.30
2018-08-06T09:43:15.125Z,2.07
2018-08-06T09:45:43.904Z,2.13
2018-08-06T09:48:14.866Z,2.20
2018-08-06T09:50:44.089Z,2.57
2018-08-06T09:53:17.767Z,2.10
2018-08-06T09:55:47.713Z,5.00
2018-08-06T09:58:20.194Z,2.33
2018-08-06T10:00:54.160Z,2.30
2018-08-06T10:03:23.551Z,2.30
2018-08-06T10:05:54.676Z,2.10
2018-08-06T10:08:23.426Z,2.97
2018-08-06T10:10:53.656Z,2.30
2018-08-06T10:13:27.496Z,2.57
2018-08-06T10:15:56.437Z,2.83
2018-08-06T10:18:31.924Z,2.40
2018-08-06T10:21:01.274Z,2.20
2018-08-06T10:23:30.181Z,1.87
2018-08-06T10:25:58.967Z,2.43
2018-08-06T10:28:37.133Z,2.10
2018-08-06T10:31:08.233Z,1.90
2018-08-06T10:33:37.415Z,2.10
2018-08-06T10:36:06.799Z,1.80
2018-08-06T10:38:39.173Z,2.40
2018-08-06T10:41:08.350Z,2.10
2018-08-06T10:43:43.300Z,1.90
2018-08-06T10:46:12.186Z,2.20
2018-08-06T10:48:45.307Z,1.90
2018-08-06T10:51:14.467Z,2.20
2018-08-06T10:53:50.590Z,2.40
2018-08-06T10:56:20.241Z,2.20
2018-08-06T10:58:50.514Z,2.00
2018-08-06T11:01:19.323Z,2.20
2018-08-06T11:03:56.938Z,2.23
2018-08-06T11:06:26.664Z,2.10
2018-08-06T11:08:55.745Z,2.50
2018-08-06T11:11:25.413Z,2.50
2018-08-06T11:13:58.724Z,2.00
2018-08-06T11:16:27.755Z,1.73
2018-08-06T11:19:04.726Z,2.43
2018-08-06T11:21:33.815Z,2.57
2018-08-06T11:24:04.213Z,2.47
2018-08-06T11:26:35.461Z,1.70
2018-08-06T11:29:12.924Z,2.50
2018-08-06T11:31:42.680Z,2.20
2018-08-06T11:34:12.503Z,2.53
2018-08-06T11:36:41.672Z,2.27
2018-08-06T11:39:15.517Z,2.13
2018-08-06T11:41:44.453Z,2.33
2018-08-06T11:44:16.509Z,2.13
2018-08-06T11:46:46.504Z,2.23
2018-08-06T11:51:47.789Z,2.23
2018-08-06T11:54:24.618Z,2.20
2018-08-06T11:56:53.766Z,1.97
2018-08-06T11:59:26.102Z,2.30
2018-08-06T12:01:56.325Z,2.00
2018-08-06T12:04:27.490Z,2.40
2018-08-06T12:06:58.513Z,2.50
2018-08-06T12:09:29.050Z,1.93
2018-08-06T12:11:59.569Z,2.10
2018-08-06T12:14:30.662Z,2.67
2018-08-06T12:16:59.910Z,1.87
2018-08-06T12:19:33.212Z,2.50
2018-08-06T12:22:02.638Z,2.63
2018-08-06T12:24:34.368Z,2.43
2018-08-06T12:27:03.696Z,2.20
2018-08-06T12:29:41.961Z,2.37
2018-08-06T12:32:11.659Z,2.30
2018-08-06T12:34:40.768Z,1.90
2018-08-06T12:37:10.696Z,2.27
2018-08-06T12:39:43.133Z,2.63
2018-08-06T12:42:12.667Z,2.33
2018-08-06T12:44:45.441Z,2.00
2018-08-06T12:47:14.513Z,2.10
2018-08-06T12:49:51.170Z,2.27
2018-08-06T12:52:23.625Z,2.00
2018-08-06T12:54:52.521Z,2.50
2018-08-06T12:57:21.680Z,2.57
2018-08-06T12:59:53.538Z,2.40
2018-08-06T13:02:23.012Z,2.03
2018-08-06T13:05:00.645Z,2.10
2018-08-06T13:07:30.405Z,2.13
2018-08-06T13:09:59.164Z,1.93
2018-08-06T13:12:30.656Z,2.13
2018-08-06T13:15:03.802Z,2.40
2018-08-06T13:17:32.903Z,2.23
2018-08-06T13:20:06.232Z,2.83
2018-08-06T13:22:35.872Z,1.70
2018-08-06T13:25:15.004Z,2.03
2018-08-06T13:27:44.545Z,2.03
2018-08-06T13:30:16.143Z,2.63
2018-08-06T13:32:46.573Z,2.33
2018-08-06T13:35:16.715Z,2.80
2018-08-06T13:43:27.695Z,2.50
2018-08-06T13:45:57.729Z,1.90
2018-08-06T13:48:28.086Z,2.33
2018-08-06T13:50:57.166Z,2.03
2018-08-06T13:53:27.672Z,2.03
2018-08-06T13:55:57.700Z,2.03
2018-08-06T13:58:27.724Z,1.60
2018-08-06T14:00:57.044Z,2.60
2018-08-06T14:03:27.164Z,2.33
2018-08-06T14:05:56.749Z,2.40
2018-08-06T14:08:31.354Z,2.33
2018-08-06T14:11:02.356Z,2.07
2018-08-06T14:13:36.449Z,1.97
2018-08-06T14:16:06.285Z,2.00
2018-08-06T14:18:43.664Z,1.83
2018-08-06T14:21:13.674Z,1.83
2018-08-06T14:23:43.775Z,2.03
2018-08-06T14:26:14.424Z,2.17
2018-08-06T14:28:45.680Z,1.60
2018-08-06T14:31:14.654Z,2.17
2018-08-06T14:33:44.560Z,2.20
2018-08-06T14:36:18.219Z,2.03
2018-08-06T14:38:47.274Z,2.03
2018-08-06T14:41:16.613Z,2.47
2018-08-06T14:43:47.711Z,2.63
2018-08-06T14:46:17.696Z,2.47
2018-08-06T14:48:49.603Z,2.40
2018-08-06T14:51:18.745Z,2.50
2018-08-06T14:53:56.174Z,2.03
2018-08-06T14:56:26.299Z,2.10
2018-08-06T14:58:58.038Z,2.13
2018-08-06T15:01:28.323Z,2.17
2018-08-06T15:06:17.813Z,2.57
2018-08-06T15:08:47.279Z,2.27
2018-08-06T15:11:18.626Z,2.90
2018-08-06T15:13:48.792Z,2.23
2018-08-06T15:16:19.043Z,2.00
2018-08-06T15:18:49.037Z,2.13
2018-08-06T15:21:18.226Z,2.13
2018-08-06T15:23:48.157Z,1.97
2018-08-06T15:26:17.416Z,2.20
2018-08-06T15:28:47.383Z,1.80
2018-08-06T15:31:16.538Z,2.00
2018-08-06T15:33:47.096Z,2.13
2018-08-06T15:36:18.039Z,2.37
2018-08-06T15:38:47.033Z,2.30
2018-08-06T15:41:21.133Z,2.07
2018-08-06T15:43:50.188Z,2.17
2018-08-06T15:46:28.594Z,2.10
2018-08-06T15:49:00.164Z,2.17
2018-08-06T15:51:32.187Z,1.90
2018-08-06T15:54:03.242Z,2.13
2018-08-06T15:56:37.302Z,2.33
2018-08-06T15:59:06.945Z,2.17
2018-08-06T16:01:36.707Z,2.27
2018-08-06T16:04:08.184Z,2.33
2018-08-06T16:06:41.372Z,2.57
2018-08-06T16:09:11.280Z,2.93
2018-08-06T16:11:41.230Z,2.60
2018-08-06T16:14:12.282Z,3.20
2018-08-06T16:16:41.499Z,2.97
2018-08-06T16:19:14.163Z,2.23
2018-08-06T16:21:47.525Z,2.17
2018-08-06T16:24:16.799Z,2.20
2018-08-06T16:26:45.433Z,2.30
2018-08-06T16:29:15.812Z,1.87
2018-08-06T16:31:48.704Z,2.30
2018-08-06T16:34:20.418Z,2.57
2018-08-06T16:36:49.479Z,2.00
2018-08-06T16:39:18.821Z,2.43
2018-08-06T16:41:50.570Z,2.17
2018-08-06T16:44:20.576Z,3.03
2018-08-06T16:46:51.791Z,2.50
2018-08-06T16:49:22.308Z,2.37
2018-08-06T16:51:55.618Z,2.30
2018-08-06T16:54:27.223Z,2.30
2018-08-06T16:56:56.176Z,2.00
2018-08-06T16:59:27.592Z,2.20
2018-08-06T17:02:04.617Z,2.23
2018-08-06T17:04:33.752Z,2.20
2018-08-06T17:07:04.240Z,1.80
2018-08-06T17:09:34.573Z,1.80
2018-08-06T17:12:07.548Z,2.27
2018-08-06T17:14:37.676Z,1.80
2018-08-06T17:17:10.031Z,1.60
2018-08-06T17:19:39.509Z,2.20
2018-08-06T17:22:12.680Z,2.37
2018-08-06T17:24:42.194Z,2.27
2018-08-06T17:27:15.447Z,2.43
2018-08-06T17:29:46.516Z,2.37
2018-08-06T17:32:17.156Z,2.57
2018-08-06T17:34:46.925Z,3.60
2018-08-06T17:37:25.236Z,2.60
2018-08-06T17:39:58.222Z,2.30
2018-08-06T17:42:29.205Z,1.87
2018-08-06T17:44:59.435Z,2.10
2018-08-06T17:47:31.253Z,2.43
2018-08-06T17:50:02.112Z,2.40
2018-08-06T17:52:32.846Z,2.47
2018-08-06T17:55:03.672Z,2.43
2018-08-06T17:57:32.931Z,2.07
2018-08-06T18:00:05.463Z,2.47
2018-08-06T18:02:36.052Z,2.00
2018-08-06T18:05:06.425Z,2.30
2018-08-06T18:07:37.558Z,9.07
2018-08-06T18:10:09.733Z,7.40
2018-08-06T18:12:40.605Z,3.33
2018-08-06T18:15:10.327Z,2.70
2018-08-06T18:17:42.970Z,2.60
2018-08-06T18:20:17.947Z,2.20
2018-08-06T18:22:51.259Z,3.30
2018-08-06T18:25:22.653Z,2.00
2018-08-06T18:27:51.754Z,2.20
2018-08-06T18:30:22.422Z,2.37
2018-08-06T18:32:53.817Z,2.60
2018-08-06T18:35:22.941Z,2.70
2018-08-06T18:37:53.602Z,2.20
2018-08-06T18:40:22.956Z,2.30
2018-08-06T18:42:53.272Z,2.80
2018-08-06T18:45:23.943Z,2.10
2018-08-06T18:47:58.095Z,2.10
2018-08-06T18:50:27.161Z,2.60
2018-08-06T18:52:59.418Z,2.57
2018-08-06T18:55:29.160Z,3.10
2018-08-06T18:58:02.769Z,2.17
2018-08-06T19:00:33.671Z,2.47
2018-08-06T19:03:05.636Z,2.63
2018-08-06T19:05:35.512Z,2.17
2018-08-06T19:08:08.220Z,2.63
2018-08-06T19:10:37.571Z,2.63
2018-08-06T19:13:20.613Z,2.40
2018-08-06T19:15:50.729Z,2.40
2018-08-06T19:18:25.650Z,3.20
2018-08-06T19:20:55.602Z,2.33
2018-08-06T19:23:24.469Z,2.63
2018-08-06T19:25:53.844Z,2.30
2018-08-06T19:28:24.529Z,3.27
2018-08-06T19:30:59.414Z,2.37
2018-08-06T19:33:31.426Z,2.87
2018-08-06T19:36:00.729Z,2.80
2018-08-06T19:38:36.951Z,3.17
2018-08-06T19:41:06.507Z,2.43
2018-08-06T19:43:39.235Z,3.57
2018-08-06T19:46:09.017Z,2.90
2018-08-06T19:48:39.240Z,3.00
2018-08-06T19:51:09.152Z,3.23
2018-08-06T19:53:38.556Z,2.70
2018-08-06T19:56:15.641Z,3.00
2018-08-06T19:58:46.633Z,2.40
2018-08-06T20:01:18.298Z,2.90
2018-08-06T20:03:50.681Z,2.67
2018-08-06T20:06:19.945Z,2.63
2018-08-06T20:08:50.773Z,3.57
2018-08-06T20:11:20.750Z,3.13
2018-08-06T20:13:50.645Z,3.37
2018-08-06T20:16:19.924Z,3.03
2018-08-06T20:18:48.946Z,3.30
2018-08-06T20:21:18.132Z,3.40
2018-08-06T20:23:52.687Z,3.60
2018-08-06T20:26:21.653Z,2.70
2018-08-06T20:28:50.695Z,3.37
2018-08-06T20:31:19.771Z,2.77
2018-08-06T20:33:52.358Z,3.37
2018-08-06T20:36:22.327Z,3.23
2018-08-06T20:38:52.833Z,3.23
2018-08-06T20:41:22.350Z,2.77
2018-08-06T20:44:00.307Z,3.57
2018-08-06T20:46:29.315Z,3.33
2018-08-06T20:49:00.894Z,3.20
2018-08-06T20:51:31.495Z,4.77
2018-08-06T20:54:03.673Z,4.03
2018-08-06T20:56:33.328Z,3.87
2018-08-06T20:59:03.705Z,4.23
2018-08-06T21:01:33.743Z,3.80
2018-08-06T21:04:08.014Z,3.70
2018-08-06T21:06:38.594Z,3.37
2018-08-06T21:09:12.187Z,3.73
2018-08-06T21:11:41.668Z,3.37
2018-08-06T21:14:15.616Z,3.47
2018-08-06T21:16:46.654Z,3.27
2018-08-06T21:19:16.222Z,3.57
2018-08-06T21:21:46.677Z,3.90
2018-08-06T21:24:17.760Z,3.57
2018-08-06T21:26:47.265Z,3.67
2018-08-06T21:29:19.480Z,3.43
2018-08-06T21:31:49.796Z,3.27
2018-08-06T21:34:25.519Z,3.47
2018-08-06T21:36:55.279Z,3.57
2018-08-06T21:39:24.496Z,3.43
2018-08-06T21:41:53.474Z,3.10
2018-08-06T21:44:29.955Z,3.70
2018-08-06T21:46:59.093Z,3.27
2018-08-06T21:49:32.346Z,3.83
2018-08-06T21:52:01.836Z,2.83
2018-08-06T21:54:33.779Z,2.87
2018-08-06T21:57:03.849Z,3.20
2018-08-06T21:59:35.071Z,2.93
2018-08-06T22:02:06.158Z,3.00
2018-08-06T22:04:39.322Z,2.93
2018-08-06T22:07:08.657Z,3.40
2018-08-06T22:09:44.229Z,4.03
2018-08-06T22:12:13.579Z,3.73
2018-08-06T22:14:42.819Z,3.73
2018-08-06T22:17:12.340Z,3.80
2018-08-06T22:19:45.256Z,4.47
2018-08-06T22:22:14.499Z,4.50
2018-08-06T22:24:51.106Z,4.80
2018-08-06T22:27:20.649Z,3.83
2018-08-06T22:29:52.245Z,4.10
2018-08-06T22:32:22.030Z,4.07
2018-08-06T22:34:54.092Z,4.37
2018-08-06T22:37:23.556Z,4.17
2018-08-06T22:39:56.524Z,3.83
2018-08-06T22:42:25.796Z,4.57
2018-08-06T22:44:58.230Z,3.60
2018-08-06T22:47:27.103Z,2.90
2018-08-06T22:50:01.593Z,3.30
2018-08-06T22:52:31.999Z,3.93
2018-08-06T22:55:06.671Z,3.40
2018-08-06T22:57:35.902Z,3.40
2018-08-06T23:00:10.308Z,2.97
2018-08-06T23:02:39.215Z,3.00
2018-08-06T23:05:17.173Z,3.30
2018-08-06T23:07:46.452Z,3.00
2018-08-06T23:10:17.249Z,2.77
2018-08-06T23:12:46.705Z,2.90
2018-08-06T23:15:17.287Z,2.70
2018-08-06T23:17:46.718Z,3.17
2018-08-06T23:20:18.341Z,3.33
2018-08-06T23:22:47.633Z,3.17
2018-08-06T23:25:24.209Z,2.60
2018-08-06T23:27:53.771Z,3.57
2018-08-06T23:30:24.181Z,3.43
2018-08-06T23:32:53.857Z,3.30
2018-08-06T23:35:27.005Z,3.10
2018-08-06T23:37:57.941Z,2.70
2018-08-06T23:40:28.323Z,3.00
2018-08-06T23:42:57.467Z,3.40
2018-08-06T23:45:30.174Z,2.80
2018-08-06T23:47:59.008Z,2.93
2018-08-06T23:50:35.153Z,2.90
2018-08-06T23:53:04.186Z,2.73
2018-08-06T23:55:36.476Z,2.73
2018-08-06T23:58:05.723Z,3.33
